sensor_id;sensor_type;location;lat;lon;timestamp;pressure;altitude;pressure_sealevel;temperature;humidity
75051;BME280;63628;47.656;11.310;2023-09-18T00:00:40;94464.75;;;18.48;72.43
75051;BME280;63628;47.656;11.310;2023-09-18T00:03:09;94461.03;;;20.34;67.43
75051;BME280;63628;47.656;11.310;2023-09-18T00:05:36;94460.78;;;18.64;65.45
75051;BME280;63628;47.656;11.310;2023-09-18T00:08:04;94462.56;;;18.31;67.32
75051;BME280;63628;47.656;11.310;2023-09-18T00:10:31;94465.19;;;17.69;75.24
75051;BME280;63628;47.656;11.310;2023-09-18T00:12:58;94469.78;;;16.12;75.79
75051;BME280;63628;47.656;11.310;2023-09-18T00:15:25;94458.56;;;17.86;68.85
75051;BME280;63628;47.656;11.310;2023-09-18T00:17:51;94459.38;;;19.83;69.44
75051;BME280;63628;47.656;11.310;2023-09-18T00:20:18;94457.66;;;19.59;63.08
75051;BME280;63628;47.656;11.310;2023-09-18T00:22:46;94459.78;;;20.17;66.14
75051;BME280;63628;47.656;11.310;2023-09-18T00:25:14;94457.47;;;20.11;68.36
75051;BME280;63628;47.656;11.310;2023-09-18T00:27:41;94443.06;;;20.20;68.46
75051;BME280;63628;47.656;11.310;2023-09-18T00:30:08;94444.16;;;20.69;66.74
75051;BME280;63628;47.656;11.310;2023-09-18T00:32:35;94450.41;;;20.01;67.20
75051;BME280;63628;47.656;11.310;2023-09-18T00:35:02;94437.25;;;20.77;66.54
75051;BME280;63628;47.656;11.310;2023-09-18T00:37:29;94448.44;;;19.00;63.57
75051;BME280;63628;47.656;11.310;2023-09-18T00:39:56;94436.09;;;19.78;62.36
75051;BME280;63628;47.656;11.310;2023-09-18T00:42:24;94434.16;;;20.47;66.28
75051;BME280;63628;47.656;11.310;2023-09-18T00:44:50;94432.53;;;20.60;66.44
75051;BME280;63628;47.656;11.310;2023-09-18T00:47:17;94437.66;;;20.07;67.09
75051;BME280;63628;47.656;11.310;2023-09-18T00:49:47;94434.41;;;20.60;66.13
75051;BME280;63628;47.656;11.310;2023-09-18T00:52:15;94428.50;;;20.08;67.57
75051;BME280;63628;47.656;11.310;2023-09-18T00:54:43;94411.81;;;20.61;66.21
75051;BME280;63628;47.656;11.310;2023-09-18T00:57:10;94413.69;;;19.97;68.22
75051;BME280;63628;47.656;11.310;2023-09-18T00:59:39;94407.91;;;20.67;66.07
75051;BME280;63628;47.656;11.310;2023-09-18T01:02:06;94406.97;;;20.49;64.80
75051;BME280;63628;47.656;11.310;2023-09-18T01:04:34;94415.63;;;18.90;65.29
75051;BME280;63628;47.656;11.310;2023-09-18T01:07:01;94403.84;;;17.44;69.82
75051;BME280;63628;47.656;11.310;2023-09-18T01:09:30;94407.75;;;19.86;67.61
75051;BME280;63628;47.656;11.310;2023-09-18T01:12:03;94389.06;;;20.44;66.21
75051;BME280;63628;47.656;11.310;2023-09-18T01:14:36;94409.03;;;19.88;67.42
75051;BME280;63628;47.656;11.310;2023-09-18T01:17:05;94392.84;;;20.30;65.90
75051;BME280;63628;47.656;11.310;2023-09-18T01:19:39;94405.56;;;20.51;66.32
75051;BME280;63628;47.656;11.310;2023-09-18T01:22:07;94398.66;;;20.59;65.67
75051;BME280;63628;47.656;11.310;2023-09-18T01:24:37;94396.00;;;19.82;62.45
75051;BME280;63628;47.656;11.310;2023-09-18T01:27:08;94392.03;;;19.79;61.00
75051;BME280;63628;47.656;11.310;2023-09-18T01:29:35;94385.97;;;16.87;73.76
75051;BME280;63628;47.656;11.310;2023-09-18T01:32:02;94382.09;;;19.06;63.84
75051;BME280;63628;47.656;11.310;2023-09-18T01:34:32;94359.78;;;19.52;67.51
75051;BME280;63628;47.656;11.310;2023-09-18T01:37:00;94372.59;;;19.27;62.72
75051;BME280;63628;47.656;11.310;2023-09-18T01:39:27;94382.31;;;17.83;67.26
75051;BME280;63628;47.656;11.310;2023-09-18T01:41:59;94378.72;;;19.00;67.77
75051;BME280;63628;47.656;11.310;2023-09-18T01:44:28;94374.78;;;20.08;60.58
75051;BME280;63628;47.656;11.310;2023-09-18T01:46:58;94351.78;;;20.74;54.02
75051;BME280;63628;47.656;11.310;2023-09-18T01:49:29;94358.63;;;20.57;58.03
75051;BME280;63628;47.656;11.310;2023-09-18T01:51:56;94359.84;;;20.74;54.13
75051;BME280;63628;47.656;11.310;2023-09-18T01:54:23;94351.72;;;20.65;54.42
75051;BME280;63628;47.656;11.310;2023-09-18T01:56:50;94349.09;;;20.51;58.90
75051;BME280;63628;47.656;11.310;2023-09-18T01:59:18;94344.22;;;20.53;55.18
75051;BME280;63628;47.656;11.310;2023-09-18T02:01:46;94341.75;;;20.66;53.82
75051;BME280;63628;47.656;11.310;2023-09-18T02:04:13;94354.25;;;20.84;59.69
75051;BME280;63628;47.656;11.310;2023-09-18T02:06:59;94361.75;;;20.01;60.00
75051;BME280;63628;47.656;11.310;2023-09-18T02:09:26;94359.03;;;18.21;66.38
75051;BME280;63628;47.656;11.310;2023-09-18T02:11:53;94346.50;;;20.10;64.24
75051;BME280;63628;47.656;11.310;2023-09-18T02:14:21;94347.97;;;20.30;63.65
75051;BME280;63628;47.656;11.310;2023-09-18T02:16:48;94351.47;;;19.67;60.47
75051;BME280;63628;47.656;11.310;2023-09-18T02:19:16;94368.88;;;19.70;64.85
75051;BME280;63628;47.656;11.310;2023-09-18T02:21:46;94345.88;;;20.27;64.39
75051;BME280;63628;47.656;11.310;2023-09-18T02:24:13;94353.59;;;18.26;66.33
75051;BME280;63628;47.656;11.310;2023-09-18T02:26:40;94337.50;;;19.10;62.98
75051;BME280;63628;47.656;11.310;2023-09-18T02:29:08;94336.06;;;19.59;65.72
75051;BME280;63628;47.656;11.310;2023-09-18T02:31:39;94324.88;;;20.15;65.15
75051;BME280;63628;47.656;11.310;2023-09-18T02:34:06;94326.97;;;19.41;61.00
75051;BME280;63628;47.656;11.310;2023-09-18T02:36:33;94329.69;;;17.92;70.08
75051;BME280;63628;47.656;11.310;2023-09-18T02:39:00;94315.97;;;19.56;66.74
75051;BME280;63628;47.656;11.310;2023-09-18T02:41:27;94303.47;;;20.24;65.59
75051;BME280;63628;47.656;11.310;2023-09-18T02:43:53;94299.53;;;19.30;61.94
75051;BME280;63628;47.656;11.310;2023-09-18T02:46:20;94296.56;;;17.46;69.19
75051;BME280;63628;47.656;11.310;2023-09-18T02:48:48;94286.00;;;19.77;66.67
75051;BME280;63628;47.656;11.310;2023-09-18T02:51:15;94277.78;;;19.59;62.64
75051;BME280;63628;47.656;11.310;2023-09-18T02:53:42;94293.22;;;17.96;64.97
75051;BME280;63628;47.656;11.310;2023-09-18T02:56:08;94273.69;;;19.21;68.08
75051;BME280;63628;47.656;11.310;2023-09-18T02:58:35;94284.63;;;19.66;66.23
75051;BME280;63628;47.656;11.310;2023-09-18T03:01:02;94277.06;;;20.04;65.29
75051;BME280;63628;47.656;11.310;2023-09-18T03:03:31;94270.66;;;20.13;65.78
75051;BME280;63628;47.656;11.310;2023-09-18T03:06:04;94272.16;;;19.83;64.47
75051;BME280;63628;47.656;11.310;2023-09-18T03:08:31;94280.03;;;18.84;61.16
75051;BME280;63628;47.656;11.310;2023-09-18T03:10:58;94274.97;;;20.01;56.92
75051;BME280;63628;47.656;11.310;2023-09-18T03:13:26;94279.72;;;20.17;58.75
75051;BME280;63628;47.656;11.310;2023-09-18T03:15:53;94282.78;;;20.24;55.43
75051;BME280;63628;47.656;11.310;2023-09-18T03:18:20;94283.09;;;20.45;55.41
75051;BME280;63628;47.656;11.310;2023-09-18T03:20:46;94282.78;;;20.24;61.28
75051;BME280;63628;47.656;11.310;2023-09-18T03:23:16;94283.94;;;20.32;60.55
75051;BME280;63628;47.656;11.310;2023-09-18T03:25:42;94271.56;;;20.45;61.38
75051;BME280;63628;47.656;11.310;2023-09-18T03:28:16;94261.69;;;20.18;58.52
75051;BME280;63628;47.656;11.310;2023-09-18T03:30:42;94267.88;;;20.18;63.18
75051;BME280;63628;47.656;11.310;2023-09-18T03:33:09;94263.25;;;19.97;61.19
75051;BME280;63628;47.656;11.310;2023-09-18T03:35:45;94261.53;;;20.01;62.46
75051;BME280;63628;47.656;11.310;2023-09-18T03:38:13;94252.06;;;20.17;63.62
75051;BME280;63628;47.656;11.310;2023-09-18T03:40:41;94262.78;;;19.04;65.67
75051;BME280;63628;47.656;11.310;2023-09-18T03:43:09;94259.94;;;19.77;60.67
75051;BME280;63628;47.656;11.310;2023-09-18T03:45:35;94252.91;;;19.40;61.75
75051;BME280;63628;47.656;11.310;2023-09-18T03:48:03;94241.34;;;20.03;65.60
75051;BME280;63628;47.656;11.310;2023-09-18T03:50:30;94249.22;;;18.81;63.76
75051;BME280;63628;47.656;11.310;2023-09-18T03:52:57;94256.28;;;19.95;65.26
75051;BME280;63628;47.656;11.310;2023-09-18T03:55:24;94256.38;;;18.72;62.95
75051;BME280;63628;47.656;11.310;2023-09-18T03:57:52;94244.78;;;19.04;61.54
75051;BME280;63628;47.656;11.310;2023-09-18T04:00:19;94247.63;;;19.35;67.22
75051;BME280;63628;47.656;11.310;2023-09-18T04:02:45;94251.66;;;19.87;65.61
75051;BME280;63628;47.656;11.310;2023-09-18T04:05:12;94241.63;;;20.02;65.12
75051;BME280;63628;47.656;11.310;2023-09-18T04:07:39;94242.53;;;19.75;62.07
75051;BME280;63628;47.656;11.310;2023-09-18T04:10:06;94239.88;;;19.97;61.13
75051;BME280;63628;47.656;11.310;2023-09-18T04:12:33;94242.38;;;19.30;62.90
75051;BME280;63628;47.656;11.310;2023-09-18T04:15:02;94244.28;;;19.16;65.59
75051;BME280;63628;47.656;11.310;2023-09-18T04:17:28;94245.59;;;18.58;63.14
75051;BME280;63628;47.656;11.310;2023-09-18T04:19:55;94227.28;;;19.34;66.72
75051;BME280;63628;47.656;11.310;2023-09-18T04:22:22;94224.25;;;19.99;65.46
75051;BME280;63628;47.656;11.310;2023-09-18T04:24:48;94219.88;;;18.57;64.36
75051;BME280;63628;47.656;11.310;2023-09-18T04:27:15;94216.44;;;19.53;66.69
75051;BME280;63628;47.656;11.310;2023-09-18T04:29:42;94221.31;;;18.82;67.90
75051;BME280;63628;47.656;11.310;2023-09-18T04:32:10;94208.97;;;19.36;65.68
75051;BME280;63628;47.656;11.310;2023-09-18T04:34:37;94215.88;;;16.43;71.86
75051;BME280;63628;47.656;11.310;2023-09-18T04:37:03;94209.13;;;18.90;68.69
75051;BME280;63628;47.656;11.310;2023-09-18T04:39:30;94211.69;;;18.21;69.25
75051;BME280;63628;47.656;11.310;2023-09-18T04:42:01;94212.91;;;17.59;67.23
75051;BME280;63628;47.656;11.310;2023-09-18T04:44:30;94207.63;;;16.39;72.20
75051;BME280;63628;47.656;11.310;2023-09-18T04:46:57;94211.94;;;16.06;72.71
75051;BME280;63628;47.656;11.310;2023-09-18T04:49:25;94208.78;;;19.32;67.50
75051;BME280;63628;47.656;11.310;2023-09-18T04:51:52;94207.56;;;18.43;69.30
75051;BME280;63628;47.656;11.310;2023-09-18T04:54:19;94198.34;;;19.58;66.32
75051;BME280;63628;47.656;11.310;2023-09-18T04:56:45;94201.25;;;18.80;62.45
75051;BME280;63628;47.656;11.310;2023-09-18T04:59:12;94202.53;;;19.23;66.04
75051;BME280;63628;47.656;11.310;2023-09-18T05:01:39;94202.47;;;18.74;68.66
75051;BME280;63628;47.656;11.310;2023-09-18T05:04:05;94195.19;;;19.29;66.00
75051;BME280;63628;47.656;11.310;2023-09-18T05:06:33;94195.72;;;19.67;66.25
75051;BME280;63628;47.656;11.310;2023-09-18T05:09:00;94194.97;;;17.78;68.62
75051;BME280;63628;47.656;11.310;2023-09-18T05:11:27;94198.94;;;17.62;70.06
75051;BME280;63628;47.656;11.310;2023-09-18T05:13:54;94204.44;;;17.89;71.02
75051;BME280;63628;47.656;11.310;2023-09-18T05:16:20;94204.81;;;16.55;71.74
75051;BME280;63628;47.656;11.310;2023-09-18T05:18:47;94211.94;;;16.06;74.21
75051;BME280;63628;47.656;11.310;2023-09-18T05:21:13;94202.88;;;18.34;70.60
75051;BME280;63628;47.656;11.310;2023-09-18T05:23:41;94207.00;;;19.28;67.11
75051;BME280;63628;47.656;11.310;2023-09-18T05:26:08;94211.53;;;18.91;63.49
75051;BME280;63628;47.656;11.310;2023-09-18T05:28:35;94217.88;;;17.47;71.93
75051;BME280;63628;47.656;11.310;2023-09-18T05:31:02;94216.72;;;17.34;70.96
75051;BME280;63628;47.656;11.310;2023-09-18T05:33:29;94214.38;;;18.21;70.08
75051;BME280;63628;47.656;11.310;2023-09-18T05:35:55;94221.25;;;17.76;70.33
75051;BME280;63628;47.656;11.310;2023-09-18T05:38:22;94222.13;;;17.29;72.11
75051;BME280;63628;47.656;11.310;2023-09-18T05:40:50;94226.63;;;16.91;72.80
75051;BME280;63628;47.656;11.310;2023-09-18T05:43:17;94233.94;;;18.68;69.16
75051;BME280;63628;47.656;11.310;2023-09-18T05:45:44;94241.19;;;18.35;68.00
75051;BME280;63628;47.656;11.310;2023-09-18T05:48:11;94241.69;;;18.83;68.60
75051;BME280;63628;47.656;11.310;2023-09-18T05:50:38;94238.00;;;19.34;66.89
75051;BME280;63628;47.656;11.310;2023-09-18T05:53:07;94229.84;;;19.39;66.50
75051;BME280;63628;47.656;11.310;2023-09-18T05:55:34;94247.34;;;17.84;73.60
75051;BME280;63628;47.656;11.310;2023-09-18T05:58:03;94229.56;;;19.27;68.00
75051;BME280;63628;47.656;11.310;2023-09-18T06:00:31;94230.34;;;19.41;66.81
75051;BME280;63628;47.656;11.310;2023-09-18T06:02:58;94234.13;;;19.26;67.47
75051;BME280;63628;47.656;11.310;2023-09-18T06:05:25;94237.94;;;18.98;72.27
75051;BME280;63628;47.656;11.310;2023-09-18T06:07:52;94242.41;;;18.43;74.55
75051;BME280;63628;47.656;11.310;2023-09-18T06:10:19;94233.44;;;18.66;72.08
75051;BME280;63628;47.656;11.310;2023-09-18T06:12:46;94240.72;;;19.20;68.16
75051;BME280;63628;47.656;11.310;2023-09-18T06:15:14;94237.91;;;19.39;67.23
75051;BME280;63628;47.656;11.310;2023-09-18T06:17:43;94240.97;;;19.46;67.07
75051;BME280;63628;47.656;11.310;2023-09-18T06:20:12;94242.16;;;19.40;70.00
75051;BME280;63628;47.656;11.310;2023-09-18T06:22:43;94249.16;;;19.27;69.54
75051;BME280;63628;47.656;11.310;2023-09-18T06:25:09;94252.00;;;19.45;67.48
75051;BME280;63628;47.656;11.310;2023-09-18T06:27:39;94254.88;;;19.76;69.90
75051;BME280;63628;47.656;11.310;2023-09-18T06:30:07;94257.97;;;19.69;67.15
75051;BME280;63628;47.656;11.310;2023-09-18T06:32:35;94262.84;;;19.67;66.88
75051;BME280;63628;47.656;11.310;2023-09-18T06:35:04;94261.75;;;19.68;66.62
75051;BME280;63628;47.656;11.310;2023-09-18T06:37:31;94266.47;;;20.43;69.82
75051;BME280;63628;47.656;11.310;2023-09-18T06:39:58;94271.94;;;20.83;69.04
75051;BME280;63628;47.656;11.310;2023-09-18T06:42:24;94271.63;;;20.84;67.18
75051;BME280;63628;47.656;11.310;2023-09-18T06:44:51;94269.75;;;20.85;68.79
75051;BME280;63628;47.656;11.310;2023-09-18T06:47:19;94272.69;;;20.30;66.77
75051;BME280;63628;47.656;11.310;2023-09-18T06:49:47;94265.16;;;19.96;66.78
75051;BME280;63628;47.656;11.310;2023-09-18T06:52:14;94274.13;;;20.50;66.42
75051;BME280;63628;47.656;11.310;2023-09-18T06:54:40;94280.16;;;20.33;65.84
75051;BME280;63628;47.656;11.310;2023-09-18T06:57:07;94287.44;;;19.97;66.43
75051;BME280;63628;47.656;11.310;2023-09-18T06:59:34;94289.94;;;19.93;66.52
75051;BME280;63628;47.656;11.310;2023-09-18T07:02:01;94296.41;;;19.92;66.65
75051;BME280;63628;47.656;11.310;2023-09-18T07:04:28;94313.31;;;20.29;72.07
75051;BME280;63628;47.656;11.310;2023-09-18T07:06:56;94324.53;;;21.51;64.67
75051;BME280;63628;47.656;11.310;2023-09-18T07:09:23;94314.53;;;22.34;59.84
75051;BME280;63628;47.656;11.310;2023-09-18T07:11:52;94319.97;;;20.76;64.34
75051;BME280;63628;47.656;11.310;2023-09-18T07:14:19;94312.84;;;20.49;65.12
75051;BME280;63628;47.656;11.310;2023-09-18T07:16:46;94311.38;;;20.87;67.56
75051;BME280;63628;47.656;11.310;2023-09-18T07:19:12;94315.97;;;20.42;65.17
75051;BME280;63628;47.656;11.310;2023-09-18T07:21:43;94303.94;;;21.64;66.19
75051;BME280;63628;47.656;11.310;2023-09-18T07:24:12;94303.47;;;24.14;60.38
75051;BME280;63628;47.656;11.310;2023-09-18T07:26:44;94302.50;;;25.39;54.26
75051;BME280;63628;47.656;11.310;2023-09-18T07:29:12;94309.63;;;26.04;51.58
75051;BME280;63628;47.656;11.310;2023-09-18T07:31:39;94314.47;;;25.38;51.88
75051;BME280;63628;47.656;11.310;2023-09-18T07:34:07;94317.28;;;21.77;61.62
75051;BME280;63628;47.656;11.310;2023-09-18T07:36:35;94328.16;;;22.12;60.20
75051;BME280;63628;47.656;11.310;2023-09-18T07:39:02;94333.22;;;23.00;55.32
75051;BME280;63628;47.656;11.310;2023-09-18T07:41:30;94342.44;;;22.30;58.84
75051;BME280;63628;47.656;11.310;2023-09-18T07:43:57;94349.34;;;21.96;60.14
75051;BME280;63628;47.656;11.310;2023-09-18T07:46:25;94358.09;;;20.92;63.59
75051;BME280;63628;47.656;11.310;2023-09-18T07:48:52;94353.25;;;23.46;52.07
75051;BME280;63628;47.656;11.310;2023-09-18T07:51:19;94366.22;;;21.62;60.93
75051;BME280;63628;47.656;11.310;2023-09-18T07:53:46;94371.53;;;22.02;60.23
75051;BME280;63628;47.656;11.310;2023-09-18T07:56:13;94380.03;;;21.07;63.58
75051;BME280;63628;47.656;11.310;2023-09-18T07:58:41;94388.84;;;20.99;63.69
75051;BME280;63628;47.656;11.310;2023-09-18T08:01:08;94406.38;;;20.97;65.04
75051;BME280;63628;47.656;11.310;2023-09-18T08:03:36;94401.94;;;21.85;61.76
75051;BME280;63628;47.656;11.310;2023-09-18T08:06:03;94412.44;;;23.04;61.53
75051;BME280;63628;47.656;11.310;2023-09-18T08:08:31;94406.84;;;21.83;61.46
75051;BME280;63628;47.656;11.310;2023-09-18T08:11:06;94409.03;;;22.12;60.24
75051;BME280;63628;47.656;11.310;2023-09-18T08:13:35;94427.06;;;20.87;64.49
75051;BME280;63628;47.656;11.310;2023-09-18T08:16:05;94439.13;;;20.76;64.87
75051;BME280;63628;47.656;11.310;2023-09-18T08:18:32;94431.50;;;21.37;61.17
75051;BME280;63628;47.656;11.310;2023-09-18T08:20:59;94428.50;;;22.92;59.46
75051;BME280;63628;47.656;11.310;2023-09-18T08:23:26;94437.50;;;22.61;59.32
75051;BME280;63628;47.656;11.310;2023-09-18T08:25:53;94435.75;;;23.43;56.94
75051;BME280;63628;47.656;11.310;2023-09-18T08:28:22;94438.59;;;22.52;58.24
75051;BME280;63628;47.656;11.310;2023-09-18T08:30:48;94444.53;;;22.97;59.95
75051;BME280;63628;47.656;11.310;2023-09-18T08:33:16;94460.34;;;22.64;61.32
75051;BME280;63628;47.656;11.310;2023-09-18T08:35:43;94456.66;;;22.34;58.28
75051;BME280;63628;47.656;11.310;2023-09-18T08:38:10;94474.47;;;22.69;59.70
75051;BME280;63628;47.656;11.310;2023-09-18T08:40:40;94478.41;;;21.98;64.98
75051;BME280;63628;47.656;11.310;2023-09-18T08:43:06;94470.47;;;22.32;62.34
75051;BME280;63628;47.656;11.310;2023-09-18T08:45:40;94471.66;;;23.35;56.85
75051;BME280;63628;47.656;11.310;2023-09-18T08:48:08;94481.31;;;22.67;58.15
75051;BME280;63628;47.656;11.310;2023-09-18T08:50:38;94482.97;;;22.20;60.46
75051;BME280;63628;47.656;11.310;2023-09-18T08:53:05;94484.41;;;22.83;60.52
75051;BME280;63628;47.656;11.310;2023-09-18T08:55:33;94489.75;;;23.52;55.98
75051;BME280;63628;47.656;11.310;2023-09-18T08:58:00;94492.00;;;22.15;61.00
75051;BME280;63628;47.656;11.310;2023-09-18T09:00:27;94489.25;;;22.06;60.85
75051;BME280;63628;47.656;11.310;2023-09-18T09:02:54;94486.81;;;22.36;59.50
75051;BME280;63628;47.656;11.310;2023-09-18T09:05:21;94492.00;;;22.24;63.33
75051;BME280;63628;47.656;11.310;2023-09-18T09:07:50;94496.69;;;22.58;59.96
75051;BME280;63628;47.656;11.310;2023-09-18T09:10:17;94495.59;;;22.10;62.79
75051;BME280;63628;47.656;11.310;2023-09-18T09:12:50;94493.97;;;22.49;61.47
75051;BME280;63628;47.656;11.310;2023-09-18T09:15:17;94492.50;;;22.83;59.92
75051;BME280;63628;47.656;11.310;2023-09-18T09:17:44;94497.22;;;22.11;61.24
75051;BME280;63628;47.656;11.310;2023-09-18T09:20:13;94493.91;;;22.14;60.56
75051;BME280;63628;47.656;11.310;2023-09-18T09:22:41;94503.81;;;21.74;62.25
75051;BME280;63628;47.656;11.310;2023-09-18T09:25:25;94495.94;;;21.87;62.27
75051;BME280;63628;47.656;11.310;2023-09-18T09:27:53;94497.88;;;21.95;61.67
75051;BME280;63628;47.656;11.310;2023-09-18T09:30:21;94495.75;;;21.74;62.92
75051;BME280;63628;47.656;11.310;2023-09-18T09:32:49;94494.28;;;21.68;63.47
75051;BME280;63628;47.656;11.310;2023-09-18T09:35:24;94498.47;;;21.83;62.71
75051;BME280;63628;47.656;11.310;2023-09-18T09:37:56;94502.50;;;21.41;64.34
75051;BME280;63628;47.656;11.310;2023-09-18T09:40:25;94512.59;;;21.89;62.31
75051;BME280;63628;47.656;11.310;2023-09-18T09:42:53;94509.38;;;21.47;64.01
75051;BME280;63628;47.656;11.310;2023-09-18T09:45:24;94499.25;;;21.30;64.92
75051;BME280;63628;47.656;11.310;2023-09-18T09:47:53;94491.34;;;21.87;63.02
75051;BME280;63628;47.656;11.310;2023-09-18T09:50:20;94495.38;;;22.29;62.17
75051;BME280;63628;47.656;11.310;2023-09-18T09:52:49;94505.34;;;22.29;61.11
75051;BME280;63628;47.656;11.310;2023-09-18T09:55:22;94506.72;;;21.87;63.26
75051;BME280;63628;47.656;11.310;2023-09-18T09:57:54;94501.88;;;22.37;62.49
75051;BME280;63628;47.656;11.310;2023-09-18T10:00:25;94501.28;;;22.57;63.58
75051;BME280;63628;47.656;11.310;2023-09-18T10:02:58;94499.84;;;22.03;64.12
75051;BME280;63628;47.656;11.310;2023-09-18T10:05:27;94494.91;;;22.44;62.90
75051;BME280;63628;47.656;11.310;2023-09-18T10:07:58;94497.91;;;22.34;61.74
75051;BME280;63628;47.656;11.310;2023-09-18T10:10:33;94495.72;;;22.45;64.18
75051;BME280;63628;47.656;11.310;2023-09-18T10:13:09;94500.72;;;22.21;62.88
75051;BME280;63628;47.656;11.310;2023-09-18T10:15:37;94498.72;;;22.35;62.34
75051;BME280;63628;47.656;11.310;2023-09-18T10:18:07;94496.19;;;22.38;63.86
75051;BME280;63628;47.656;11.310;2023-09-18T10:20:39;94495.25;;;22.03;64.10
75051;BME280;63628;47.656;11.310;2023-09-18T10:23:16;94508.75;;;21.81;64.09
75051;BME280;63628;47.656;11.310;2023-09-18T10:25:54;94518.13;;;21.52;64.92
75051;BME280;63628;47.656;11.310;2023-09-18T10:28:23;94514.16;;;21.50;65.22
75051;BME280;63628;47.656;11.310;2023-09-18T10:30:55;94511.44;;;21.50;65.05
75051;BME280;63628;47.656;11.310;2023-09-18T10:33:23;94519.81;;;21.71;66.21
75051;BME280;63628;47.656;11.310;2023-09-18T10:35:51;94530.84;;;21.61;65.18
75051;BME280;63628;47.656;11.310;2023-09-18T10:38:19;94538.22;;;21.77;64.88
75051;BME280;63628;47.656;11.310;2023-09-18T10:40:50;94540.78;;;21.51;65.10
75051;BME280;63628;47.656;11.310;2023-09-18T10:43:17;94548.56;;;21.39;65.57
75051;BME280;63628;47.656;11.310;2023-09-18T10:45:46;94562.16;;;21.34;64.86
75051;BME280;63628;47.656;11.310;2023-09-18T10:48:14;94564.38;;;21.32;62.59
75051;BME280;63628;47.656;11.310;2023-09-18T10:50:42;94576.53;;;21.30;63.89
75051;BME280;63628;47.656;11.310;2023-09-18T10:53:09;94578.13;;;21.31;63.78
75051;BME280;63628;47.656;11.310;2023-09-18T10:55:36;94595.50;;;21.25;63.42
75051;BME280;63628;47.656;11.310;2023-09-18T10:58:04;94589.81;;;21.12;61.75
75051;BME280;63628;47.656;11.310;2023-09-18T11:00:32;94589.00;;;20.89;61.72
75051;BME280;63628;47.656;11.310;2023-09-18T11:03:13;94588.47;;;21.01;63.49
75051;BME280;63628;47.656;11.310;2023-09-18T11:05:40;94590.94;;;21.11;62.47
75051;BME280;63628;47.656;11.310;2023-09-18T11:08:43;94595.31;;;21.07;62.52
75051;BME280;63628;47.656;11.310;2023-09-18T11:11:11;94602.34;;;20.95;62.92
75051;BME280;63628;47.656;11.310;2023-09-18T11:13:41;94608.13;;;20.88;60.48
75051;BME280;63628;47.656;11.310;2023-09-18T11:16:32;94610.31;;;20.86;62.49
75051;BME280;63628;47.656;11.310;2023-09-18T11:19:08;94612.00;;;20.96;61.44
75051;BME280;63628;47.656;11.310;2023-09-18T11:21:36;94615.28;;;20.93;61.08
75051;BME280;63628;47.656;11.310;2023-09-18T11:24:04;94634.53;;;20.86;61.72
75051;BME280;63628;47.656;11.310;2023-09-18T11:26:32;94626.66;;;20.76;60.72
75051;BME280;63628;47.656;11.310;2023-09-18T11:29:00;94630.03;;;20.54;61.73
75051;BME280;63628;47.656;11.310;2023-09-18T11:31:45;94623.53;;;20.27;62.91
75051;BME280;63628;47.656;11.310;2023-09-18T11:34:15;94642.31;;;20.87;62.27
75051;BME280;63628;47.656;11.310;2023-09-18T11:36:42;94673.69;;;20.92;61.82
75051;BME280;63628;47.656;11.310;2023-09-18T11:39:09;94672.56;;;20.66;61.17
75051;BME280;63628;47.656;11.310;2023-09-18T11:41:39;94676.38;;;20.92;61.93
75051;BME280;63628;47.656;11.310;2023-09-18T11:44:31;94680.16;;;20.91;62.18
75051;BME280;63628;47.656;11.310;2023-09-18T11:47:01;94688.44;;;20.95;62.07
75051;BME280;63628;47.656;11.310;2023-09-18T11:49:29;94702.75;;;20.63;62.47
75051;BME280;63628;47.656;11.310;2023-09-18T11:51:59;94706.72;;;20.51;63.20
75051;BME280;63628;47.656;11.310;2023-09-18T11:54:27;94705.03;;;20.55;63.82
75051;BME280;63628;47.656;11.310;2023-09-18T11:56:54;94709.38;;;20.84;62.70
75051;BME280;63628;47.656;11.310;2023-09-18T11:59:33;94703.16;;;20.56;63.90
75051;BME280;63628;47.656;11.310;2023-09-18T12:02:01;94711.97;;;20.89;62.65
75051;BME280;63628;47.656;11.310;2023-09-18T12:04:34;94695.31;;;20.87;62.68
75051;BME280;63628;47.656;11.310;2023-09-18T12:07:03;94708.00;;;20.40;63.59
75051;BME280;63628;47.656;11.310;2023-09-18T12:09:31;94713.25;;;20.32;64.37
75051;BME280;63628;47.656;11.310;2023-09-18T12:11:58;94727.91;;;19.26;67.79
75051;BME280;63628;47.656;11.310;2023-09-18T12:14:30;94731.34;;;20.72;63.82
75051;BME280;63628;47.656;11.310;2023-09-18T12:16:59;94743.81;;;19.84;66.87
75051;BME280;63628;47.656;11.310;2023-09-18T12:19:25;94731.44;;;20.21;65.93
75051;BME280;63628;47.656;11.310;2023-09-18T12:21:53;94737.44;;;20.13;65.89
75051;BME280;63628;47.656;11.310;2023-09-18T12:24:21;94747.78;;;19.25;69.59
75051;BME280;63628;47.656;11.310;2023-09-18T12:26:48;94753.38;;;18.81;70.14
75051;BME280;63628;47.656;11.310;2023-09-18T12:29:15;94752.84;;;18.21;73.14
75051;BME280;63628;47.656;11.310;2023-09-18T12:31:41;94746.03;;;18.00;74.46
75051;BME280;63628;47.656;11.310;2023-09-18T12:34:15;94737.78;;;19.55;68.58
75051;BME280;63628;47.656;11.310;2023-09-18T12:36:42;94739.97;;;19.05;71.39
75051;BME280;63628;47.656;11.310;2023-09-18T12:39:11;94743.69;;;18.56;72.93
75051;BME280;63628;47.656;11.310;2023-09-18T12:41:38;94734.41;;;18.44;73.22
75051;BME280;63628;47.656;11.310;2023-09-18T12:44:05;94734.09;;;18.21;73.75
75051;BME280;63628;47.656;11.310;2023-09-18T12:46:32;94728.00;;;18.11;76.03
75051;BME280;63628;47.656;11.310;2023-09-18T12:49:14;94729.50;;;19.27;70.46
75051;BME280;63628;47.656;11.310;2023-09-18T12:51:41;94724.50;;;20.15;66.94
75051;BME280;63628;47.656;11.310;2023-09-18T12:54:08;94719.50;;;20.27;66.30
75051;BME280;63628;47.656;11.310;2023-09-18T12:56:41;94728.72;;;20.40;65.69